Time;durP1;ratioP1;P1;durP2;ratioP2;P2;SDS_P1;SDS_P2;PMS_P1;PMS_P2;Temp;Humidity;BMP_temperature;BMP_pressure;BME280_temperature;BME280_humidity;BME280_pressure;Samples;Min_cycle;Max_cycle;Signal;HPM_P1;HPM_P2
2023/04/25 00:01:25;;;;;;;24.95;3.58;;;7.20;80.50;;;;;;5008050;28;20061;-64
2023/04/25 00:03:50;;;;;;;26.63;3.55;;;7.10;69.70;;;;;;5008135;28;20043;-64
2023/04/25 00:06:17;;;;;;;31.17;4.45;;;7.00;75.00;;;;;;5009507;28;20503;-64
2023/04/25 00:08:43;;;;;;;24.45;4.07;;;7.10;76.80;;;;;;5009120;28;20049;-64
2023/04/25 00:11:09;;;;;;;26.73;4.20;;;7.10;77.60;;;;;;5009174;28;20451;-64
2023/04/25 00:13:35;;;;;;;32.47;3.95;;;7.10;70.10;;;;;;5008932;28;20053;-64
2023/04/25 00:16:02;;;;;;;22.63;4.63;;;7.20;75.30;;;;;;5003622;28;20793;-64
2023/04/25 00:18:28;;;;;;;28.20;4.38;;;7.20;79.20;;;;;;5007982;28;20046;-64
2023/04/25 00:20:55;;;;;;;29.92;5.45;;;7.20;80.40;;;;;;5008337;28;20365;-65
2023/04/25 00:23:21;;;;;;;29.58;4.70;;;7.20;75.00;;;;;;5009890;28;20374;-64
2023/04/25 00:25:49;;;;;;;22.17;3.80;;;7.30;83.00;;;;;;5000678;28;20241;-64
2023/04/25 00:28:15;;;;;;;25.73;4.00;;;7.20;79.00;;;;;;5008549;28;20120;-64
2023/04/25 00:30:42;;;;;;;24.50;3.70;;;7.20;79.10;;;;;;5009150;28;20046;-64
2023/04/25 00:33:08;;;;;;;22.80;4.70;;;7.20;71.60;;;;;;5008012;28;20549;-64
2023/04/25 00:35:34;;;;;;;27.08;5.18;;;7.20;78.50;;;;;;5009171;28;20046;-64
2023/04/25 00:38:00;;;;;;;28.95;4.43;;;7.10;77.20;;;;;;5007859;28;20046;-65
2023/04/25 00:40:26;;;;;;;22.50;3.88;;;7.10;76.80;;;;;;5008043;28;20425;-64
2023/04/25 00:42:53;;;;;;;15.63;3.15;;;7.10;71.50;;;;;;5008165;28;20104;-65
2023/04/25 00:45:19;;;;;;;20.40;3.75;;;7.10;67.70;;;;;;5008417;28;20096;-64
2023/04/25 00:47:45;;;;;;;22.40;4.15;;;7.20;64.90;;;;;;5008711;28;20085;-64
2023/04/25 00:50:12;;;;;;;18.73;3.75;;;7.20;62.50;;;;;;5007967;28;20133;-64
2023/04/25 00:52:42;;;;;;;20.08;3.28;;;7.20;63.70;;;;;;5008443;28;20560;-64
2023/04/25 00:55:09;;;;;;;21.00;4.25;;;7.20;65.70;;;;;;5007534;28;20058;-64
2023/04/25 00:57:36;;;;;;;19.42;3.45;;;7.20;63.00;;;;;;5008900;28;20049;-64
2023/04/25 01:00:05;;;;;;;24.63;4.13;;;7.10;64.80;;;;;;5007496;28;20038;-64
2023/04/25 01:02:31;;;;;;;22.02;3.35;;;7.10;68.40;;;;;;5008386;28;20560;-64
2023/04/25 01:04:57;;;;;;;18.67;3.53;;;7.10;66.90;;;;;;5007803;28;20156;-64
2023/04/25 01:07:23;;;;;;;19.45;3.80;;;7.10;70.40;;;;;;5007675;28;20428;-64
2023/04/25 01:09:51;;;;;;;26.45;4.30;;;7.10;65.10;;;;;;5008200;28;20046;-64
2023/04/25 01:12:17;;;;;;;25.77;4.75;;;7.10;69.30;;;;;;5007281;28;20399;-64
2023/04/25 01:14:43;;;;;;;18.60;3.00;;;7.00;60.30;;;;;;5008758;28;20033;-64
2023/04/25 01:17:10;;;;;;;22.05;3.22;;;7.00;47.10;;;;;;5006862;28;20584;-64
2023/04/25 01:19:36;;;;;;;16.27;4.30;;;7.00;52.30;;;;;;5008258;28;20444;-64
2023/04/25 01:22:03;;;;;;;20.67;3.05;;;7.00;52.10;;;;;;4998665;28;20050;-64
2023/04/25 01:24:31;;;;;;;21.77;3.22;;;7.00;54.40;;;;;;5006787;28;20133;-64
2023/04/25 01:26:58;;;;;;;17.95;4.18;;;6.90;50.00;;;;;;5008082;28;20054;-64
2023/04/25 01:29:24;;;;;;;24.33;3.75;;;6.90;53.30;;;;;;4989201;28;20042;-64
2023/04/25 01:31:52;;;;;;;21.38;3.58;;;6.90;51.80;;;;;;5005754;28;20065;-64
2023/04/25 01:34:18;;;;;;;14.45;2.60;;;6.90;55.60;;;;;;5006819;28;20045;-65
2023/04/25 01:36:43;;;;;;;20.23;3.03;;;6.90;58.00;;;;;;5008118;28;20108;-64
2023/04/25 01:39:10;;;;;;;16.38;2.83;;;6.90;50.50;;;;;;5006238;28;20054;-64
2023/04/25 01:41:36;;;;;;;24.50;3.30;;;6.90;47.90;;;;;;4998534;28;20556;-65
2023/04/25 01:44:02;;;;;;;24.10;4.25;;;6.90;53.00;;;;;;5007171;28;20132;-64
2023/04/25 01:46:28;;;;;;;17.27;3.25;;;6.90;55.90;;;;;;5006667;28;20510;-64
2023/04/25 01:48:54;;;;;;;16.42;3.80;;;6.90;63.70;;;;;;5007892;28;20431;-64
2023/04/25 01:51:20;;;;;;;23.02;3.75;;;6.90;60.50;;;;;;5006195;28;20053;-64
2023/04/25 01:53:46;;;;;;;16.50;3.05;;;6.90;60.70;;;;;;5008117;28;20125;-87
2023/04/25 01:56:11;;;;;;;17.20;3.20;;;6.80;59.80;;;;;;5005707;28;20045;-64
2023/04/25 01:58:37;;;;;;;17.10;3.75;;;6.80;55.40;;;;;;5007997;28;20041;-64
2023/04/25 02:01:03;;;;;;;21.33;2.80;;;6.80;51.80;;;;;;5006820;28;20515;-72
2023/04/25 02:03:31;;;;;;;16.50;2.88;;;6.80;57.30;;;;;;5007025;28;20620;-64
2023/04/25 02:05:57;;;;;;;20.73;4.13;;;6.80;49.90;;;;;;5001480;28;20058;-64
2023/04/25 02:08:22;;;;;;;21.00;3.78;;;6.80;56.70;;;;;;5004662;28;20041;-64
2023/04/25 02:10:48;;;;;;;20.73;4.03;;;6.70;49.30;;;;;;5007634;28;20064;-64
2023/04/25 02:13:14;;;;;;;17.75;3.17;;;6.80;55.30;;;;;;5005411;28;20362;-64
2023/04/25 02:15:40;;;;;;;15.50;3.05;;;6.70;52.50;;;;;;5004473;28;20030;-64
2023/04/25 02:18:06;;;;;;;18.58;3.80;;;6.70;50.30;;;;;;5005838;28;20133;-64
2023/04/25 02:20:32;;;;;;;17.13;3.67;;;6.60;45.00;;;;;;5005364;28;20181;-64
2023/04/25 02:22:58;;;;;;;18.60;3.20;;;6.50;50.10;;;;;;5006741;28;20471;-64
2023/04/25 02:25:24;;;;;;;15.65;2.80;;;6.40;48.50;;;;;;5006291;28;20484;-75
2023/04/25 02:27:51;;;;;;;19.25;3.78;;;6.40;53.10;;;;;;5001876;28;20120;-64
2023/04/25 02:30:17;;;;;;;19.85;3.40;;;6.40;62.30;;;;;;5004619;28;20057;-64
2023/04/25 02:32:43;;;;;;;17.73;3.17;;;6.40;70.80;;;;;;5007076;28;20412;-64
2023/04/25 02:35:09;;;;;;;16.52;3.75;;;6.30;72.60;;;;;;5006004;28;20046;-64
2023/04/25 02:37:36;;;;;;;14.65;3.08;;;6.30;67.30;;;;;;5006732;28;20046;-64
2023/04/25 02:40:03;;;;;;;22.33;2.97;;;6.40;64.40;;;;;;5005765;28;20037;-64
2023/04/25 02:42:29;;;;;;;17.35;2.88;;;6.40;65.30;;;;;;5006331;28;20058;-64
2023/04/25 02:44:55;;;;;;;9.02;2.38;;;6.40;62.30;;;;;;5006257;28;20042;-64
2023/04/25 02:47:21;;;;;;;17.63;3.20;;;6.40;66.00;;;;;;5005730;28;20103;-77
2023/04/25 02:49:47;;;;;;;14.90;3.55;;;6.40;63.70;;;;;;5007215;28;20046;-69
2023/04/25 02:52:13;;;;;;;15.13;2.95;;;6.40;62.80;;;;;;5006153;28;20049;-64
2023/04/25 02:54:39;;;;;;;11.75;3.50;;;6.40;68.70;;;;;;5007599;28;20073;-64
2023/04/25 02:57:05;;;;;;;18.10;3.55;;;6.20;71.90;;;;;;5003818;28;20053;-64
2023/04/25 02:59:31;;;;;;;18.60;3.38;;;6.10;74.60;;;;;;4980195;28;20092;-64
2023/04/25 03:01:57;;;;;;;13.07;2.58;;;6.00;76.20;;;;;;5005689;28;20096;-64
2023/04/25 03:04:23;;;;;;;11.43;2.97;;;5.90;77.20;;;;;;5005573;28;20058;-64
2023/04/25 03:06:52;;;;;;;16.30;2.85;;;5.80;76.40;;;;;;5005147;28;20125;-83
2023/04/25 03:09:19;;;;;;;10.90;2.58;;;5.80;76.40;;;;;;5004715;28;20497;-64
2023/04/25 03:11:45;;;;;;;19.40;2.55;;;5.80;82.80;;;;;;5005224;28;20117;-64
2023/04/25 03:14:12;;;;;;;22.58;2.95;;;5.90;88.40;;;;;;5005233;28;20386;-64
2023/04/25 03:16:38;;;;;;;15.15;2.97;;;5.80;92.20;;;;;;5006365;28;20061;-64
2023/04/25 03:19:04;;;;;;;16.52;2.92;;;5.70;92.60;;;;;;5005065;28;20045;-64
2023/04/25 03:21:34;;;;;;;18.88;3.05;;;5.70;94.80;;;;;;5004175;28;20365;-64
2023/04/25 03:24:02;;;;;;;11.23;2.47;;;5.70;97.30;;;;;;5005843;28;20125;-64
2023/04/25 03:26:28;;;;;;;13.20;3.08;;;5.60;96.80;;;;;;5004846;28;20069;-64
2023/04/25 03:28:54;;;;;;;20.73;3.97;;;5.60;96.90;;;;;;5003457;28;20736;-65
2023/04/25 03:31:20;;;;;;;14.88;3.00;;;5.60;96.70;;;;;;4999183;28;20050;-73
2023/04/25 03:33:46;;;;;;;18.38;2.55;;;5.50;97.00;;;;;;4994781;28;20548;-64
2023/04/25 03:36:12;;;;;;;12.55;2.00;;;5.50;97.70;;;;;;4987175;28;20133;-64
2023/04/25 03:38:37;;;;;;;13.95;2.58;;;5.50;97.30;;;;;;5005901;28;20042;-63
2023/04/25 03:41:03;;;;;;;12.57;3.35;;;5.50;98.00;;;;;;5005459;28;20515;-64
2023/04/25 03:43:29;;;;;;;11.85;1.90;;;5.50;98.00;;;;;;5004850;28;20334;-64
2023/04/25 03:45:55;;;;;;;11.63;2.35;;;5.40;97.60;;;;;;5006183;28;20100;-65
2023/04/25 03:48:22;;;;;;;10.90;2.42;;;5.40;94.00;;;;;;5004358;28;20031;-64
2023/04/25 03:50:48;;;;;;;8.13;2.03;;;5.40;91.90;;;;;;5006580;28;20048;-64
2023/04/25 03:53:13;;;;;;;19.65;2.45;;;5.40;91.20;;;;;;5003878;28;20046;-64
2023/04/25 03:55:39;;;;;;;19.83;3.22;;;5.40;90.30;;;;;;5004275;28;20054;-63
2023/04/25 03:58:05;;;;;;;18.48;2.30;;;5.50;91.60;;;;;;5005230;28;20050;-64
2023/04/25 04:00:31;;;;;;;13.95;3.42;;;5.50;83.30;;;;;;5001457;28;20358;-70
2023/04/25 04:02:57;;;;;;;27.58;4.15;;;5.50;80.00;;;;;;5005289;28;20057;-63
2023/04/25 04:05:23;;;;;;;22.60;4.25;;;5.60;75.10;;;;;;5004821;28;20120;-64
2023/04/25 04:07:48;;;;;;;16.50;3.40;;;5.70;73.60;;;;;;5005777;28;20484;-64
2023/04/25 04:10:14;;;;;;;12.98;3.30;;;5.80;70.90;;;;;;5003406;28;20080;-64
2023/04/25 04:12:40;;;;;;;20.42;3.53;;;5.80;66.20;;;;;;5005425;28;20411;-64
2023/04/25 04:15:06;;;;;;;16.63;4.15;;;5.90;67.40;;;;;;5004980;28;20042;-64
2023/04/25 04:17:32;;;;;;;17.63;3.58;;;5.90;68.80;;;;;;5005373;28;20050;-64
2023/04/25 04:19:59;;;;;;;15.15;2.92;;;6.10;69.10;;;;;;5005176;28;20652;-64
2023/04/25 04:22:25;;;;;;;16.67;3.58;;;6.00;71.50;;;;;;4991903;28;20100;-64
2023/04/25 04:24:51;;;;;;;20.77;3.88;;;6.00;74.80;;;;;;5005627;28;20088;-68
2023/04/25 04:27:21;;;;;;;13.80;3.17;;;5.90;75.10;;;;;;5004946;28;20042;-64
2023/04/25 04:29:47;;;;;;;9.73;2.65;;;5.90;83.10;;;;;;5005682;28;20046;-64
2023/04/25 04:32:14;;;;;;;13.05;2.13;;;5.90;91.30;;;;;;4997017;28;20078;-64
2023/04/25 04:34:41;;;;;;;12.90;1.85;;;5.80;92.50;;;;;;5005407;28;20042;-64
2023/04/25 04:37:07;;;;;;;11.15;1.92;;;5.80;91.00;;;;;;5007164;28;20061;-63
2023/04/25 04:39:33;;;;;;;8.68;1.70;;;5.70;80.90;;;;;;5006866;28;20050;-64
2023/04/25 04:42:01;;;;;;;17.23;3.30;;;5.70;67.50;;;;;;5008186;28;20381;-64
2023/04/25 04:44:28;;;;;;;9.10;3.42;;;5.80;71.50;;;;;;5007967;28;20068;-64
2023/04/25 04:46:54;;;;;;;11.32;2.55;;;5.80;73.10;;;;;;5009109;28;20052;-64
2023/04/25 04:49:21;;;;;;;14.63;4.28;;;5.80;76.80;;;;;;5007947;28;20050;-64
2023/04/25 04:51:49;;;;;;;12.07;2.85;;;5.80;76.50;;;;;;5008946;28;20427;-64
2023/04/25 04:54:15;;;;;;;5.07;2.20;;;5.80;74.40;;;;;;5007309;28;20046;-64
2023/04/25 04:56:41;;;;;;;8.82;2.00;;;5.80;76.60;;;;;;5007845;28;20473;-63
2023/04/25 04:59:07;;;;;;;13.30;2.83;;;5.70;76.30;;;;;;5008787;28;20115;-64
2023/04/25 05:01:35;;;;;;;13.88;2.55;;;5.80;76.90;;;;;;5007438;28;20054;-64
2023/04/25 05:04:02;;;;;;;14.93;3.13;;;5.80;76.90;;;;;;5008391;28;20049;-64
2023/04/25 05:06:31;;;;;;;12.00;1.98;;;5.80;82.20;;;;;;4989263;28;20142;-64
2023/04/25 05:08:57;;;;;;;8.85;2.30;;;5.80;79.80;;;;;;5008646;28;20046;-84
2023/04/25 05:11:24;;;;;;;11.23;2.40;;;5.90;80.40;;;;;;5007487;28;20477;-63
2023/04/25 05:13:51;;;;;;;19.15;3.53;;;5.90;82.00;;;;;;5008009;28;20050;-78
2023/04/25 05:16:17;;;;;;;18.35;2.45;;;5.80;82.60;;;;;;5006183;28;20558;-63
2023/04/25 05:18:43;;;;;;;12.13;2.38;;;5.80;85.60;;;;;;5007367;28;20049;-64
2023/04/25 05:21:09;;;;;;;14.88;3.00;;;5.80;89.50;;;;;;5008058;28;20042;-64
2023/04/25 05:23:34;;;;;;;16.75;1.90;;;5.80;89.60;;;;;;5005537;28;20070;-63
2023/04/25 05:26:01;;;;;;;16.40;2.47;;;5.90;90.50;;;;;;5008009;28;20046;-64
2023/04/25 05:28:26;;;;;;;15.40;2.90;;;5.90;89.50;;;;;;5007220;28;20057;-63
2023/04/25 05:30:52;;;;;;;13.27;1.67;;;6.00;87.00;;;;;;5008091;28;20049;-64
2023/04/25 05:33:18;;;;;;;10.20;2.22;;;6.00;85.80;;;;;;5007390;28;20038;-64
2023/04/25 05:35:44;;;;;;;10.23;2.45;;;6.10;82.50;;;;;;4980810;28;20477;-64
2023/04/25 05:38:10;;;;;;;13.57;2.55;;;6.20;76.50;;;;;;5004117;28;20481;-64
2023/04/25 05:40:36;;;;;;;16.90;2.30;;;6.20;82.90;;;;;;5006791;28;20042;-64
2023/04/25 05:43:02;;;;;;;15.25;1.85;;;6.20;73.40;;;;;;5008134;28;20042;-64
2023/04/25 05:45:27;;;;;;;14.93;2.47;;;6.30;73.60;;;;;;5006712;28;20783;-64
2023/04/25 05:47:53;;;;;;;11.70;2.53;;;6.30;72.30;;;;;;5007625;28;20046;-63
2023/04/25 05:50:19;;;;;;;18.80;2.85;;;6.30;76.20;;;;;;5005163;28;20809;-64
2023/04/25 05:52:45;;;;;;;15.90;3.72;;;6.40;76.30;;;;;;5007638;28;20054;-64
2023/04/25 05:55:10;;;;;;;17.98;3.60;;;6.40;77.40;;;;;;5007120;28;20373;-64
2023/04/25 05:57:36;;;;;;;12.45;3.58;;;6.40;75.50;;;;;;5006252;28;20060;-64
2023/04/25 06:00:03;;;;;;;17.08;3.88;;;6.40;68.70;;;;;;5007275;28;20042;-74
2023/04/25 06:02:28;;;;;;;11.85;3.60;;;6.60;75.80;;;;;;5006857;28;20584;-64
2023/04/25 06:04:54;;;;;;;16.35;3.15;;;6.60;61.50;;;;;;5007410;28;20089;-64
2023/04/25 06:07:20;;;;;;;14.13;4.20;;;6.60;57.90;;;;;;5005412;28;20038;-64
2023/04/25 06:09:46;;;;;;;19.08;4.53;;;6.70;56.60;;;;;;5007470;28;20073;-65
2023/04/25 06:12:12;;;;;;;11.73;1.85;;;6.60;52.10;;;;;;5005208;28;20064;-64
2023/04/25 06:14:38;;;;;;;11.88;2.00;;;6.60;40.80;;;;;;5006796;28;20548;-63
2023/04/25 06:17:08;;;;;;;9.32;1.98;;;6.80;45.10;;;;;;5006757;28;20116;-64
2023/04/25 06:19:37;;;;;;;12.95;2.58;;;6.90;44.90;;;;;;5005766;28;20049;-63
2023/04/25 06:22:03;;;;;;;9.65;1.83;;;7.00;51.00;;;;;;5006895;28;20436;-64
2023/04/25 06:24:29;;;;;;;9.35;2.05;;;7.00;48.90;;;;;;4991915;28;20099;-64
2023/04/25 06:26:54;;;;;;;10.43;1.75;;;7.00;56.00;;;;;;5007048;28;20042;-64
2023/04/25 06:29:20;;;;;;;9.05;2.22;;;7.10;50.30;;;;;;5005998;28;20105;-64
2023/04/25 06:31:46;;;;;;;11.40;2.30;;;7.10;57.80;;;;;;5006663;28;20038;-64
2023/04/25 06:34:12;;;;;;;10.57;3.03;;;7.10;52.80;;;;;;5006650;28;20060;-82
2023/04/25 06:36:38;;;;;;;15.95;3.85;;;7.00;39.00;;;;;;5005648;28;20752;-64
2023/04/25 06:39:03;;;;;;;15.23;4.80;;;7.00;39.30;;;;;;5006493;28;20045;-64
2023/04/25 06:41:29;;;;;;;11.73;3.33;;;7.00;43.70;;;;;;5005958;28;20616;-64
2023/04/25 06:43:55;;;;;;;8.25;2.65;;;7.00;46.30;;;;;;5006642;28;20053;-63
2023/04/25 06:46:21;;;;;;;12.40;2.55;;;7.10;43.00;;;;;;5005585;28;20061;-82
2023/04/25 06:48:46;;;;;;;12.48;2.38;;;7.20;44.70;;;;;;5006536;28;20497;-63
2023/04/25 06:51:13;;;;;;;14.75;3.00;;;7.30;40.90;;;;;;5006005;28;20037;-63
2023/04/25 06:53:39;;;;;;;12.32;2.28;;;7.40;34.40;;;;;;5006116;28;20124;-64
2023/04/25 06:56:06;;;;;;;9.45;2.35;;;7.60;37.80;;;;;;4989264;28;20078;-64
2023/04/25 06:58:31;;;;;;;13.73;2.20;;;7.90;47.40;;;;;;4985986;28;20550;-64
2023/04/25 07:00:57;;;;;;;10.20;1.90;;;8.20;41.00;;;;;;5004491;28;20050;-64
2023/04/25 07:03:23;;;;;;;18.23;3.70;;;8.40;25.00;;;;;;5003550;28;20052;-63
2023/04/25 07:05:50;;;;;;;13.93;2.50;;;8.30;46.60;;;;;;5004810;28;20038;-64
2023/04/25 07:08:16;;;;;;;13.32;2.22;;;7.90;66.10;;;;;;4986391;28;20502;-64
2023/04/25 07:10:42;;;;;;;13.35;2.53;;;7.60;64.50;;;;;;5004296;28;20046;-64
2023/04/25 07:13:08;;;;;;;10.73;2.40;;;7.40;64.40;;;;;;5004991;28;20101;-62
2023/04/25 07:15:34;;;;;;;15.57;2.08;;;7.30;71.40;;;;;;4987856;28;20050;-63
2023/04/25 07:17:59;;;;;;;11.75;3.00;;;7.30;62.90;;;;;;4996896;28;20045;-63
2023/04/25 07:20:27;;;;;;;15.38;4.20;;;7.30;63.20;;;;;;5005843;28;20493;-63
2023/04/25 07:22:53;;;;;;;8.35;2.00;;;7.30;68.10;;;;;;5007143;28;20050;-65
2023/04/25 07:25:19;;;;;;;12.63;3.03;;;7.20;68.00;;;;;;5005557;28;20053;-64
2023/04/25 07:27:45;;;;;;;16.45;2.53;;;7.20;68.10;;;;;;5007119;28;20042;-63
2023/04/25 07:30:12;;;;;;;9.63;1.70;;;7.10;67.20;;;;;;5004135;28;20652;-64
2023/04/25 07:32:39;;;;;;;8.80;1.95;;;7.20;66.50;;;;;;5005844;28;20117;-64
2023/04/25 07:35:06;;;;;;;8.15;2.13;;;7.30;66.70;;;;;;4990119;28;20424;-64
2023/04/25 07:37:33;;;;;;;9.48;2.38;;;7.20;62.90;;;;;;4994295;28;20046;-64
2023/04/25 07:39:58;;;;;;;12.00;1.88;;;7.20;59.50;;;;;;4987274;28;20041;-64
2023/04/25 07:42:24;;;;;;;9.27;2.60;;;7.20;60.70;;;;;;4986797;28;20060;-64
2023/04/25 07:44:51;;;;;;;11.48;1.88;;;7.20;54.80;;;;;;4987981;28;20053;-64
2023/04/25 07:47:18;;;;;;;9.15;1.75;;;7.30;63.00;;;;;;4987711;28;20054;-63
2023/04/25 07:49:45;;;;;;;9.35;1.98;;;7.70;62.00;;;;;;5005553;28;20523;-64
2023/04/25 07:52:11;;;;;;;10.25;1.95;;;8.20;51.20;;;;;;4987040;28;20045;-64
2023/04/25 07:54:37;;;;;;;10.25;2.05;;;8.50;43.80;;;;;;4986472;28;20539;-64
2023/04/25 07:57:03;;;;;;;12.52;2.15;;;8.80;34.00;;;;;;5004864;28;20046;-65
2023/04/25 07:59:29;;;;;;;9.98;1.67;;;8.80;31.00;;;;;;5003870;28;20484;-64
2023/04/25 08:01:57;;;;;;;14.95;1.88;;;8.60;26.80;;;;;;5004942;28;20041;-64
2023/04/25 08:04:23;;;;;;;7.22;1.55;;;8.70;16.90;;;;;;4984973;28;20073;-63
2023/04/25 08:06:48;;;;;;;6.97;1.17;;;8.80;19.90;;;;;;5005705;28;20154;-64
2023/04/25 08:09:15;;;;;;;6.88;1.70;;;8.70;18.60;;;;;;5003944;28;20559;-63
2023/04/25 08:11:41;;;;;;;8.95;1.63;;;8.90;15.00;;;;;;5007155;28;20049;-63
2023/04/25 08:14:07;;;;;;;7.30;2.00;;;9.00;22.50;;;;;;4973832;28;20492;-63
2023/04/25 08:16:33;;;;;;;6.30;1.80;;;9.30;13.10;;;;;;5008528;28;20046;-64
2023/04/25 08:19:00;;;;;;;8.45;1.73;;;9.10;15.40;;;;;;4974884;28;20060;-64
2023/04/25 08:21:27;;;;;;;8.75;2.22;;;9.00;25.30;;;;;;5008654;28;20041;-63
2023/04/25 08:23:53;;;;;;;13.27;2.08;;;8.90;17.60;;;;;;5009170;28;20038;-64
2023/04/25 08:26:18;;;;;;;11.30;2.17;;;9.10;24.10;;;;;;4990624;28;20048;-63
2023/04/25 08:28:45;;;;;;;10.38;2.70;;;9.40;24.30;;;;;;5009375;28;20044;-63
2023/04/25 08:31:11;;;;;;;13.07;2.13;;;9.60;7.90;;;;;;5008544;28;20045;-63
2023/04/25 08:33:37;;;;;;;12.40;2.60;;;9.70;4.70;;;;;;5008397;28;20038;-63
2023/04/25 08:36:03;;;;;;;12.00;1.75;;;9.40;7.50;;;;;;5008263;28;20056;-63
2023/04/25 08:38:29;;;;;;;9.15;1.65;;;9.10;15.50;;;;;;5007967;28;20049;-62
2023/04/25 08:40:56;;;;;;;10.23;2.05;;;9.20;19.00;;;;;;4991018;28;20549;-64
2023/04/25 08:43:24;;;;;;;13.20;1.90;;;9.20;6.60;;;;;;5007144;28;20042;-63
2023/04/25 08:45:56;;;;;;;11.25;1.95;;;9.20;2.60;;;;;;4990721;28;20042;-64
2023/04/25 08:48:24;;;;;;;8.73;1.80;;;9.40;8.20;;;;;;4990638;28;20468;-63
2023/04/25 08:50:51;;;;;;;9.95;1.50;;;9.40;1.00;;;;;;5007944;28;20038;-63
2023/04/25 08:53:32;;;;;;;10.35;1.77;;;9.40;1.00;;;;;;5008178;28;20046;-62
2023/04/25 08:56:01;;;;;;;7.10;1.90;;;9.50;8.60;;;;;;5006665;28;20042;-62
2023/04/25 08:58:28;;;;;;;5.15;1.25;;;9.50;1.00;;;;;;5011349;28;20054;-62
2023/04/25 09:00:54;;;;;;;8.82;1.58;;;9.70;1.00;;;;;;5003613;28;20041;-62
2023/04/25 09:03:20;;;;;;;12.10;1.45;;;9.90;1.00;;;;;;5007106;28;20120;-62
2023/04/25 09:05:46;;;;;;;4.82;1.80;;;10.00;3.10;;;;;;5008166;28;20044;-62
2023/04/25 09:08:12;;;;;;;9.73;1.33;;;9.60;1.00;;;;;;4994637;28;20042;-62
2023/04/25 09:10:38;;;;;;;9.15;1.60;;;9.60;4.40;;;;;;4985607;28;20042;-62
2023/04/25 09:13:11;;;;;;;8.52;1.75;;;9.30;1.00;;;;;;5005582;28;20457;-62
2023/04/25 09:16:03;;;;;;;10.68;2.10;;;9.00;6.50;;;;;;5008622;28;20065;-62
2023/04/25 09:18:32;;;;;;;14.48;1.73;;;8.70;4.90;;;;;;4992096;28;20050;-62
2023/04/25 09:21:09;;;;;;;12.45;1.15;;;8.40;8.00;;;;;;4998648;28;20048;-62
2023/04/25 09:23:46;;;;;;;9.23;2.03;;;8.40;30.20;;;;;;4993740;28;20046;-62
2023/04/25 09:26:21;;;;;;;7.15;2.03;;;8.70;14.40;;;;;;5006461;28;20105;-62
2023/04/25 09:28:50;;;;;;;13.68;2.83;;;8.90;25.30;;;;;;5007540;28;20034;-62
2023/04/25 09:31:24;;;;;;;15.43;2.28;;;8.70;25.70;;;;;;5006050;28;20046;-63
2023/04/25 09:33:50;;;;;;;11.38;2.45;;;8.50;36.50;;;;;;5007400;28;20464;-62
2023/04/25 09:36:15;;;;;;;20.80;2.38;;;8.10;35.60;;;;;;5006821;28;20089;-62
2023/04/25 09:38:45;;;;;;;13.05;2.88;;;7.90;43.50;;;;;;4989566;28;20493;-62
2023/04/25 09:41:11;;;;;;;17.27;2.50;;;8.10;49.70;;;;;;5007397;28;20058;-62
2023/04/25 09:43:38;;;;;;;15.38;2.58;;;8.60;42.20;;;;;;5006883;28;20038;-62
2023/04/25 09:46:09;;;;;;;11.38;1.77;;;8.70;37.90;;;;;;4998340;28;20050;-62
2023/04/25 09:48:36;;;;;;;11.85;2.10;;;8.80;31.70;;;;;;5007008;28;20052;-62
2023/04/25 09:51:07;;;;;;;10.43;1.25;;;9.10;31.70;;;;;;5007067;28;20499;-62
2023/04/25 09:53:35;;;;;;;6.40;1.48;;;8.90;4.40;;;;;;5005381;28;20045;-62
2023/04/25 09:56:05;;;;;;;10.85;1.42;;;8.60;4.00;;;;;;4999764;28;20455;-62
2023/04/25 09:58:31;;;;;;;8.10;1.67;;;8.70;9.70;;;;;;5007058;28;20092;-62
2023/04/25 10:01:03;;;;;;;10.55;2.05;;;9.00;10.50;;;;;;5006387;28;20077;-62
2023/04/25 10:03:35;;;;;;;13.40;2.28;;;9.20;12.20;;;;;;4973561;28;20049;-62
2023/04/25 10:06:04;;;;;;;7.47;1.48;;;9.60;10.20;;;;;;5006633;28;20053;-62
2023/04/25 10:08:33;;;;;;;10.55;1.70;;;9.80;3.80;;;;;;5006786;28;20170;-62
2023/04/25 10:11:03;;;;;;;12.60;2.63;;;9.80;1.00;;;;;;5006847;28;20041;-62
2023/04/25 10:13:32;;;;;;;9.00;2.03;;;9.90;1.40;;;;;;5005182;28;20045;-62
2023/04/25 10:16:00;;;;;;;10.27;2.10;;;10.10;1.00;;;;;;5007491;28;20392;-62
2023/04/25 10:18:32;;;;;;;11.48;2.45;;;10.20;2.00;;;;;;5005102;28;20058;-62
2023/04/25 10:21:01;;;;;;;12.05;1.80;;;10.20;3.80;;;;;;5005981;28;20073;-62
2023/04/25 10:23:28;;;;;;;9.32;2.10;;;10.10;3.70;;;;;;5005119;28;20061;-62
2023/04/25 10:25:54;;;;;;;11.80;1.90;;;9.70;3.80;;;;;;5006699;28;20042;-61
2023/04/25 10:28:20;;;;;;;6.25;1.85;;;9.50;5.10;;;;;;5006556;28;20078;-61
2023/04/25 10:31:03;;;;;;;13.05;2.40;;;9.80;6.00;;;;;;4997277;28;20041;-61
2023/04/25 10:33:40;;;;;;;14.10;2.08;;;9.90;3.00;;;;;;4995231;28;20052;-62
2023/04/25 10:36:14;;;;;;;11.93;2.60;;;9.40;3.30;;;;;;5000848;28;20392;-62
2023/04/25 10:38:43;;;;;;;8.82;1.77;;;9.10;16.40;;;;;;5000394;28;20054;-61
2023/04/25 10:41:11;;;;;;;7.50;1.63;;;8.90;23.40;;;;;;5006126;28;20049;-62
2023/04/25 10:43:42;;;;;;;12.70;1.85;;;8.80;22.40;;;;;;5006607;28;20049;-62
2023/04/25 10:46:35;;;;;;;9.38;2.00;;;8.90;23.10;;;;;;4983006;28;20046;-62
2023/04/25 10:49:02;;;;;;;6.72;1.45;;;9.30;18.60;;;;;;5001682;28;20049;-61
2023/04/25 10:51:30;;;;;;;7.22;1.88;;;9.70;3.90;;;;;;4987974;28;20563;-61
2023/04/25 10:54:02;;;;;;;10.70;1.83;;;9.80;2.20;;;;;;4988273;28;20084;-61
2023/04/25 10:56:31;;;;;;;9.68;1.40;;;9.50;5.80;;;;;;5005143;28;20488;-61
2023/04/25 10:59:18;;;;;;;7.22;1.85;;;9.30;1.00;;;;;;5006624;28;20054;-61
2023/04/25 11:01:51;;;;;;;8.20;1.85;;;9.50;5.60;;;;;;5000730;28;20046;-61
2023/04/25 11:04:29;;;;;;;9.02;2.33;;;9.50;6.70;;;;;;5006461;28;20045;-61
2023/04/25 11:07:25;;;;;;;12.82;2.10;;;9.40;11.30;;;;;;5006030;28;20377;-61
2023/04/25 11:09:52;;;;;;;5.88;1.55;;;9.60;13.90;;;;;;4998412;28;20063;-61
2023/04/25 11:12:18;;;;;;;9.70;1.70;;;9.30;5.60;;;;;;5005258;28;20823;-61
2023/04/25 11:14:43;;;;;;;17.35;2.45;;;9.40;12.10;;;;;;5003937;28;20100;-61
2023/04/25 11:17:10;;;;;;;9.38;1.48;;;9.70;14.00;;;;;;5006333;28;20064;-61
2023/04/25 11:19:36;;;;;;;7.75;1.38;;;9.70;6.70;;;;;;5005139;28;20050;-62
2023/04/25 11:22:03;;;;;;;9.50;2.28;;;9.40;4.60;;;;;;5005543;28;20041;-61
2023/04/25 11:24:36;;;;;;;8.57;1.83;;;9.30;2.30;;;;;;5005746;28;20131;-61
2023/04/25 11:27:03;;;;;;;17.33;2.80;;;9.50;9.90;;;;;;5005570;28;20103;-62
2023/04/25 11:29:30;;;;;;;11.85;2.90;;;9.50;17.40;;;;;;5006141;28;20041;-61
2023/04/25 11:32:00;;;;;;;13.77;2.15;;;9.20;32.00;;;;;;5004792;28;20046;-61
2023/04/25 11:34:30;;;;;;;14.60;1.70;;;8.80;19.80;;;;;;5001466;28;20046;-61
2023/04/25 11:36:56;;;;;;;9.60;1.20;;;8.30;15.90;;;;;;5005641;28;20136;-61
2023/04/25 11:39:24;;;;;;;5.03;1.40;;;8.40;19.70;;;;;;5005440;28;20053;-61
2023/04/25 11:41:51;;;;;;;6.03;1.33;;;8.60;18.00;;;;;;5006481;28;20077;-61
2023/04/25 11:44:17;;;;;;;8.02;1.92;;;8.50;5.90;;;;;;5004288;28;20046;-61
2023/04/25 11:46:44;;;;;;;12.18;2.25;;;8.40;24.20;;;;;;5006679;28;20038;-61
2023/04/25 11:49:11;;;;;;;9.88;2.05;;;8.60;33.40;;;;;;4991189;28;20049;-61
2023/04/25 11:51:44;;;;;;;9.95;2.13;;;9.20;35.40;;;;;;5008477;28;20050;-60
2023/04/25 11:54:11;;;;;;;10.90;2.10;;;9.70;28.50;;;;;;5009283;28;20053;-61
2023/04/25 11:56:37;;;;;;;12.02;2.17;;;10.00;23.80;;;;;;5004161;28;20050;-61
2023/04/25 11:59:05;;;;;;;5.40;1.75;;;10.30;13.10;;;;;;5008162;28;20046;-61
2023/04/25 12:01:32;;;;;;;12.27;2.20;;;10.40;9.60;;;;;;5008619;28;20113;-61
2023/04/25 12:04:10;;;;;;;12.93;3.65;;;9.90;20.40;;;;;;4994971;28;20451;-61
2023/04/25 12:06:41;;;;;;;10.10;2.80;;;8.90;48.30;;;;;;5008947;28;20085;-61
2023/04/25 12:09:10;;;;;;;8.48;2.63;;;8.20;59.40;;;;;;4997031;28;20075;-77
2023/04/25 12:11:43;;;;;;;6.53;1.60;;;7.80;71.10;;;;;;5010006;28;20050;-62
2023/04/25 12:14:10;;;;;;;6.22;1.60;;;7.80;86.60;;;;;;5009122;28;20046;-62
2023/04/25 12:16:44;;;;;;;8.95;1.88;;;7.60;82.80;;;;;;5009461;28;20124;-60
2023/04/25 12:19:13;;;;;;;11.15;1.88;;;7.50;79.70;;;;;;5008170;28;20050;-63
2023/04/25 12:21:38;;;;;;;13.05;1.80;;;7.70;90.10;;;;;;5009483;28;20042;-62
2023/04/25 12:24:24;;;;;;;9.10;1.70;;;7.60;83.80;;;;;;5008613;28;20042;-62
2023/04/25 12:27:01;;;;;;;7.82;1.67;;;7.50;80.20;;;;;;4997668;28;20037;-62
2023/04/25 12:29:29;;;;;;;10.18;1.55;;;7.70;75.90;;;;;;5008732;28;20053;-62
2023/04/25 12:31:55;;;;;;;10.95;2.75;;;8.00;65.60;;;;;;5007531;28;20228;-62
2023/04/25 12:34:22;;;;;;;9.70;2.03;;;8.30;71.60;;;;;;5009103;28;20128;-62
2023/04/25 12:36:49;;;;;;;12.07;2.45;;;8.60;76.70;;;;;;5008231;28;20050;-62
2023/04/25 12:39:19;;;;;;;10.57;2.20;;;8.90;68.60;;;;;;5009510;28;20046;-62
2023/04/25 12:41:46;;;;;;;12.88;2.30;;;9.20;73.60;;;;;;4991508;28;20085;-62
2023/04/25 12:44:12;;;;;;;10.10;1.80;;;9.30;59.20;;;;;;5008595;28;20071;-78
2023/04/25 12:46:39;;;;;;;7.88;2.33;;;9.40;48.10;;;;;;4990937;28;20151;-62
2023/04/25 12:49:07;;;;;;;16.98;2.28;;;9.10;49.10;;;;;;5000579;28;20128;-62
2023/04/25 12:51:33;;;;;;;13.55;2.22;;;8.80;51.30;;;;;;5008604;28;20344;-62